Time;durP1;ratioP1;P1;durP2;ratioP2;P2;SDS_P1;SDS_P2;PMS_P1;PMS_P2;Temp;Humidity;BMP_temperature;BMP_pressure;BME280_temperature;BME280_humidity;BME280_pressure;Samples;Min_cycle;Max_cycle;Signal;HPM_P1;HPM_P2
2023/12/01 00:00:26;;;;;;;;;;;;;;;;;;5131883;27;1535;-73
2023/12/01 00:02:52;;;;;;;;;;;;;;;;;;5116437;28;1000;-73
2023/12/01 00:05:17;;;;;;;;;;;;;;;;;;5116948;28;1010;-73
2023/12/01 00:07:42;;;;;;;;;;;;;;;;;;5135477;27;883;-73
2023/12/01 00:10:11;;;;;;;;;;;;;;;;;;5134550;27;883;-73
2023/12/01 00:12:36;;;;;;;;;;;;;;;;;;5135110;27;903;-73
2023/12/01 00:15:02;;;;;;;;;;;;;;;;;;5116037;28;1891;-73
2023/12/01 00:17:27;;;;;;;;;;;;;;;;;;5116266;28;1226;-73
2023/12/01 00:19:52;;;;;;;;;;;;;;;;;;5134794;28;840;-67
2023/12/01 00:22:18;;;;;;;;;;;;;;;;;;5112781;27;1255;-69
2023/12/01 00:24:43;;;;;;;;;;;;;;;;;;5128886;28;1167;-68
2023/12/01 00:27:08;;;;;;;;;;;;;;;;;;5129365;28;1187;-68
2023/12/01 00:29:34;;;;;;;;;;;;;;;;;;5111115;28;1171;-69
2023/12/01 00:31:59;;;;;;;;;;;;;;;;;;5130236;28;1268;-68
2023/12/01 00:34:24;;;;;;;;;;;;;;;;;;5111472;28;1967;-66
2023/12/01 00:36:50;;;;;;;;;;;;;;;;;;5134101;28;1140;-67
2023/12/01 00:39:16;;;;;;;;;;;;;;;;;;5137185;27;1180;-67
2023/12/01 00:41:41;;;;;;;;;;;;;;;;;;5103355;27;1266;-68
2023/12/01 00:44:06;;;;;;;;;;;;;;;;;;5120201;27;1529;-68
2023/12/01 00:46:31;;;;;;;;;;;;;;;;;;5119870;27;860;-68
2023/12/01 00:48:57;;;;;;;;;;;;;;;;;;5137974;27;1215;-68
2023/12/01 00:51:22;;;;;;;;;;;;;;;;;;5101688;27;1834;-68
2023/12/01 00:53:47;;;;;;;;;;;;;;;;;;5136995;27;1886;-68
2023/12/01 00:56:13;;;;;;;;;;;;;;;;;;5137891;27;852;-68
2023/12/01 00:58:38;;;;;;;;;;;;;;;;;;5138227;27;875;-68
2023/12/01 01:01:05;;;;;;;;;;;;;;;;;;5138007;27;883;-68
2023/12/01 01:03:31;;;;;;;;;;;;;;;;;;5137829;27;887;-68
2023/12/01 01:05:56;;;;;;;;;;;;;;;;;;5119565;27;1417;-68
2023/12/01 01:08:21;;;;;;;;;;;;;;;;;;5137577;27;958;-68
2023/12/01 01:10:46;;;;;;;;;;;;;;;;;;5138037;27;919;-68
2023/12/01 01:13:12;;;;;;;;;;;;;;;;;;5138027;27;839;-72
2023/12/01 01:15:37;;;;;;;;;;;;;;;;;;5119572;27;1913;-73
2023/12/01 01:18:02;;;;;;;;;;;;;;;;;;5119878;27;828;-72
2023/12/01 01:20:28;;;;;;;;;;;;;;;;;;5119377;27;1302;-73
2023/12/01 01:22:53;;;;;;;;;;;;;;;;;;5102371;27;1300;-73
2023/12/01 01:25:18;;;;;;;;;;;;;;;;;;5118955;27;1285;-73
2023/12/01 01:27:44;;;;;;;;;;;;;;;;;;5137759;27;868;-73
2023/12/01 01:30:09;;;;;;;;;;;;;;;;;;5137589;27;876;-73
2023/12/01 01:32:35;;;;;;;;;;;;;;;;;;5137729;27;876;-72
2023/12/01 01:35:00;;;;;;;;;;;;;;;;;;5137093;27;1907;-73
2023/12/01 01:37:25;;;;;;;;;;;;;;;;;;5137652;27;821;-72
2023/12/01 01:39:51;;;;;;;;;;;;;;;;;;5137516;27;896;-72
2023/12/01 01:42:16;;;;;;;;;;;;;;;;;;5137319;27;1036;-73
2023/12/01 01:44:41;;;;;;;;;;;;;;;;;;5137562;27;848;-73
2023/12/01 01:47:06;;;;;;;;;;;;;;;;;;5118858;27;1254;-72
2023/12/01 01:49:32;;;;;;;;;;;;;;;;;;5136231;27;785;-72
2023/12/01 01:51:59;;;;;;;;;;;;;;;;;;5118714;27;1194;-72
2023/12/01 01:54:24;;;;;;;;;;;;;;;;;;5136921;27;1897;-72
2023/12/01 01:56:53;;;;;;;;;;;;;;;;;;5118873;27;1210;-73
2023/12/01 01:59:20;;;;;;;;;;;;;;;;;;5137005;27;880;-73
2023/12/01 02:01:46;;;;;;;;;;;;;;;;;;5133796;27;1307;-73
2023/12/01 02:04:11;;;;;;;;;;;;;;;;;;5114283;27;1175;-74
2023/12/01 02:06:37;;;;;;;;;;;;;;;;;;5132889;27;1158;-73
2023/12/01 02:09:03;;;;;;;;;;;;;;;;;;5133003;27;1191;-73
2023/12/01 02:11:28;;;;;;;;;;;;;;;;;;5133290;27;1195;-73
2023/12/01 02:13:54;;;;;;;;;;;;;;;;;;5132953;27;1968;-72
2023/12/01 02:16:19;;;;;;;;;;;;;;;;;;5114785;27;1219;-67
2023/12/01 02:18:45;;;;;;;;;;;;;;;;;;5132545;27;1207;-67
2023/12/01 02:21:10;;;;;;;;;;;;;;;;;;5136447;27;1215;-68
2023/12/01 02:23:35;;;;;;;;;;;;;;;;;;5136894;27;939;-68
2023/12/01 02:26:01;;;;;;;;;;;;;;;;;;5100986;27;1199;-68
2023/12/01 02:28:26;;;;;;;;;;;;;;;;;;5136331;27;917;-68
2023/12/01 02:30:55;;;;;;;;;;;;;;;;;;5118168;27;1296;-68
2023/12/01 02:33:21;;;;;;;;;;;;;;;;;;5136081;27;915;-68
2023/12/01 02:35:46;;;;;;;;;;;;;;;;;;5100673;27;1976;-68
2023/12/01 02:38:12;;;;;;;;;;;;;;;;;;5118109;27;1895;-68
2023/12/01 02:40:42;;;;;;;;;;;;;;;;;;5136191;27;919;-66
2023/12/01 02:43:08;;;;;;;;;;;;;;;;;;5117779;27;1552;-67
2023/12/01 02:45:33;;;;;;;;;;;;;;;;;;5117782;27;1494;-68
2023/12/01 02:47:59;;;;;;;;;;;;;;;;;;5135329;27;800;-68
2023/12/01 02:50:24;;;;;;;;;;;;;;;;;;5117249;27;1231;-68
2023/12/01 02:52:50;;;;;;;;;;;;;;;;;;5136336;27;981;-68
2023/12/01 02:55:15;;;;;;;;;;;;;;;;;;5135759;27;1956;-68
2023/12/01 02:57:41;;;;;;;;;;;;;;;;;;5135935;27;884;-68
2023/12/01 03:00:09;;;;;;;;;;;;;;;;;;5135885;27;840;-68
2023/12/01 03:02:34;;;;;;;;;;;;;;;;;;5116963;27;1346;-66
2023/12/01 03:04:59;;;;;;;;;;;;;;;;;;5135218;27;998;-67
2023/12/01 03:07:25;;;;;;;;;;;;;;;;;;5135742;27;769;-66
2023/12/01 03:09:50;;;;;;;;;;;;;;;;;;5116935;27;1214;-67
2023/12/01 03:12:16;;;;;;;;;;;;;;;;;;5135276;27;942;-67
2023/12/01 03:14:41;;;;;;;;;;;;;;;;;;5135617;27;1959;-68
2023/12/01 03:17:06;;;;;;;;;;;;;;;;;;5135334;27;702;-68
2023/12/01 03:19:31;;;;;;;;;;;;;;;;;;5116921;27;1521;-72
2023/12/01 03:21:57;;;;;;;;;;;;;;;;;;5116264;27;1238;-72
2023/12/01 03:24:22;;;;;;;;;;;;;;;;;;5131225;27;1198;-72
2023/12/01 03:26:48;;;;;;;;;;;;;;;;;;5130621;27;1340;-73
2023/12/01 03:29:13;;;;;;;;;;;;;;;;;;5112191;27;1259;-71
2023/12/01 03:31:38;;;;;;;;;;;;;;;;;;5130678;27;1207;-72
2023/12/01 03:34:05;;;;;;;;;;;;;;;;;;5112673;27;1905;-72
2023/12/01 03:36:30;;;;;;;;;;;;;;;;;;5112778;27;1196;-73
2023/12/01 03:38:56;;;;;;;;;;;;;;;;;;5112705;27;1790;-72
2023/12/01 03:41:21;;;;;;;;;;;;;;;;;;5131372;27;1218;-72
2023/12/01 03:43:46;;;;;;;;;;;;;;;;;;5131186;27;1416;-73
2023/12/01 03:46:11;;;;;;;;;;;;;;;;;;5111883;27;1916;-73
2023/12/01 03:48:37;;;;;;;;;;;;;;;;;;5130906;27;1116;-71
2023/12/01 03:51:02;;;;;;;;;;;;;;;;;;5134794;27;1144;-72
2023/12/01 03:53:30;;;;;;;;;;;;;;;;;;5116899;27;891;-67
2023/12/01 03:55:56;;;;;;;;;;;;;;;;;;5117120;27;1953;-67
2023/12/01 03:58:24;;;;;;;;;;;;;;;;;;5116489;27;1445;-67
2023/12/01 04:00:50;;;;;;;;;;;;;;;;;;5134721;27;895;-66
2023/12/01 04:03:16;;;;;;;;;;;;;;;;;;5134042;27;993;-67
2023/12/01 04:05:41;;;;;;;;;;;;;;;;;;5099256;27;1596;-68
2023/12/01 04:08:07;;;;;;;;;;;;;;;;;;5099260;27;1497;-67
2023/12/01 04:10:33;;;;;;;;;;;;;;;;;;5134696;27;886;-67
2023/12/01 04:13:06;;;;;;;;;;;;;;;;;;5098783;27;1370;-67
2023/12/01 04:15:32;;;;;;;;;;;;;;;;;;5134488;27;1897;-68
2023/12/01 04:17:57;;;;;;;;;;;;;;;;;;5134741;27;926;-66
2023/12/01 04:20:26;;;;;;;;;;;;;;;;;;5115909;28;1338;-66
2023/12/01 04:23:09;;;;;;;;;;;;;;;;;;5115869;28;1484;-67
2023/12/01 04:25:35;;;;;;;;;;;;;;;;;;5116207;28;1265;-67
2023/12/01 04:28:00;;;;;;;;;;;;;;;;;;5134009;28;873;-73
2023/12/01 04:30:25;;;;;;;;;;;;;;;;;;5115784;28;1467;-72
2023/12/01 04:32:55;;;;;;;;;;;;;;;;;;5115897;28;1330;-73
2023/12/01 04:35:20;;;;;;;;;;;;;;;;;;5115410;28;1906;-72
2023/12/01 04:37:46;;;;;;;;;;;;;;;;;;5134453;28;847;-73
2023/12/01 04:40:14;;;;;;;;;;;;;;;;;;5115696;28;1325;-72
2023/12/01 04:42:47;;;;;;;;;;;;;;;;;;5116326;28;828;-72
2023/12/01 04:45:13;;;;;;;;;;;;;;;;;;5134291;28;946;-72
2023/12/01 04:47:39;;;;;;;;;;;;;;;;;;5116005;28;1267;-72
2023/12/01 04:50:12;;;;;;;;;;;;;;;;;;5134397;28;907;-72
2023/12/01 04:52:37;;;;;;;;;;;;;;;;;;5134419;28;1124;-72
2023/12/01 04:55:02;;;;;;;;;;;;;;;;;;5134091;28;1973;-73
2023/12/01 04:57:28;;;;;;;;;;;;;;;;;;5115658;28;813;-72
2023/12/01 04:59:56;;;;;;;;;;;;;;;;;;5099086;28;1121;-72
2023/12/01 05:02:23;;;;;;;;;;;;;;;;;;5132423;28;1206;-72
2023/12/01 05:04:50;;;;;;;;;;;;;;;;;;5128652;28;1094;-72
2023/12/01 05:07:15;;;;;;;;;;;;;;;;;;5110648;28;1203;-73
2023/12/01 05:09:41;;;;;;;;;;;;;;;;;;5111964;28;1215;-73
2023/12/01 05:12:07;;;;;;;;;;;;;;;;;;5129971;28;1120;-73
2023/12/01 05:14:32;;;;;;;;;;;;;;;;;;5111749;28;1905;-73
2023/12/01 05:16:58;;;;;;;;;;;;;;;;;;5111588;28;1262;-73
2023/12/01 05:19:23;;;;;;;;;;;;;;;;;;5094708;28;1293;-73
2023/12/01 05:21:48;;;;;;;;;;;;;;;;;;5134243;28;1018;-72
2023/12/01 05:24:13;;;;;;;;;;;;;;;;;;5135483;27;836;-72
2023/12/01 05:26:39;;;;;;;;;;;;;;;;;;5137622;27;934;-72
2023/12/01 05:29:12;;;;;;;;;;;;;;;;;;5102128;27;1233;-72
2023/12/01 05:31:38;;;;;;;;;;;;;;;;;;5138340;27;895;-72
2023/12/01 05:34:05;;;;;;;;;;;;;;;;;;5137632;27;1870;-72
2023/12/01 05:36:30;;;;;;;;;;;;;;;;;;5137498;27;851;-72
2023/12/01 05:38:55;;;;;;;;;;;;;;;;;;5137372;27;856;-72
2023/12/01 05:41:21;;;;;;;;;;;;;;;;;;5101888;27;832;-72
2023/12/01 05:43:47;;;;;;;;;;;;;;;;;;5137562;27;820;-72
2023/12/01 05:46:12;;;;;;;;;;;;;;;;;;5137109;27;871;-72
2023/12/01 05:48:37;;;;;;;;;;;;;;;;;;5119469;27;903;-72
2023/12/01 05:51:04;;;;;;;;;;;;;;;;;;5136801;27;897;-72
2023/12/01 05:53:34;;;;;;;;;;;;;;;;;;5101825;27;1242;-72
2023/12/01 05:55:59;;;;;;;;;;;;;;;;;;5136938;27;1894;-72
2023/12/01 05:58:24;;;;;;;;;;;;;;;;;;5136802;27;1077;-73
2023/12/01 06:00:49;;;;;;;;;;;;;;;;;;5118463;27;876;-73
2023/12/01 06:03:15;;;;;;;;;;;;;;;;;;5118594;27;816;-72
2023/12/01 06:05:41;;;;;;;;;;;;;;;;;;5118514;27;872;-72
2023/12/01 06:08:10;;;;;;;;;;;;;;;;;;5136826;27;860;-72
2023/12/01 06:10:35;;;;;;;;;;;;;;;;;;5118109;27;1277;-72
2023/12/01 06:13:00;;;;;;;;;;;;;;;;;;5136421;27;773;-72
2023/12/01 06:15:29;;;;;;;;;;;;;;;;;;5136856;27;1898;-72
2023/12/01 06:17:56;;;;;;;;;;;;;;;;;;5136524;27;910;-72
2023/12/01 06:20:22;;;;;;;;;;;;;;;;;;5136551;27;868;-72
2023/12/01 06:22:52;;;;;;;;;;;;;;;;;;5118422;27;1246;-72
2023/12/01 06:25:19;;;;;;;;;;;;;;;;;;5136470;27;812;-70
2023/12/01 06:27:45;;;;;;;;;;;;;;;;;;5117630;27;906;-72
2023/12/01 06:30:13;;;;;;;;;;;;;;;;;;5136366;27;1011;-71
2023/12/01 06:32:43;;;;;;;;;;;;;;;;;;5117957;27;1257;-72
2023/12/01 06:35:10;;;;;;;;;;;;;;;;;;5136859;27;1894;-72
2023/12/01 06:37:35;;;;;;;;;;;;;;;;;;5100412;27;1180;-72
2023/12/01 06:40:00;;;;;;;;;;;;;;;;;;5117422;27;1345;-72
2023/12/01 06:42:25;;;;;;;;;;;;;;;;;;5136280;27;1050;-72
2023/12/01 06:44:51;;;;;;;;;;;;;;;;;;5136648;27;1225;-73
2023/12/01 06:47:16;;;;;;;;;;;;;;;;;;5101010;27;1327;-73
2023/12/01 06:49:41;;;;;;;;;;;;;;;;;;5117760;27;1035;-73
2023/12/01 06:52:08;;;;;;;;;;;;;;;;;;5136936;27;916;-73
2023/12/01 06:54:33;;;;;;;;;;;;;;;;;;5136342;27;1964;-73
2023/12/01 06:56:58;;;;;;;;;;;;;;;;;;5136020;27;927;-73
2023/12/01 06:59:24;;;;;;;;;;;;;;;;;;5135741;27;938;-73
2023/12/01 07:01:49;;;;;;;;;;;;;;;;;;5117450;27;1170;-72
2023/12/01 07:04:16;;;;;;;;;;;;;;;;;;5113329;27;1898;-72
2023/12/01 07:06:46;;;;;;;;;;;;;;;;;;5130477;27;1147;-73
2023/12/01 07:09:17;;;;;;;;;;;;;;;;;;5113034;27;1140;-74
2023/12/01 07:11:42;;;;;;;;;;;;;;;;;;5114264;27;1080;-73
2023/12/01 07:14:07;;;;;;;;;;;;;;;;;;5113551;27;1897;-74
2023/12/01 07:16:32;;;;;;;;;;;;;;;;;;5113095;27;1172;-73
2023/12/01 07:18:58;;;;;;;;;;;;;;;;;;5130374;27;1243;-72
2023/12/01 07:21:23;;;;;;;;;;;;;;;;;;5133862;27;1158;-73
2023/12/01 07:23:49;;;;;;;;;;;;;;;;;;5117096;27;1323;-73
2023/12/01 07:26:17;;;;;;;;;;;;;;;;;;5135347;27;915;-74
2023/12/01 07:28:42;;;;;;;;;;;;;;;;;;5135109;27;828;-73
2023/12/01 07:31:07;;;;;;;;;;;;;;;;;;5135244;27;895;-73
2023/12/01 07:33:33;;;;;;;;;;;;;;;;;;5135447;27;843;-73
2023/12/01 07:35:58;;;;;;;;;;;;;;;;;;5116878;27;1990;-73
2023/12/01 07:38:23;;;;;;;;;;;;;;;;;;5135079;27;1041;-73
2023/12/01 07:40:48;;;;;;;;;;;;;;;;;;5116923;27;1263;-72
2023/12/01 07:43:14;;;;;;;;;;;;;;;;;;5135263;27;969;-73
2023/12/01 07:45:42;;;;;;;;;;;;;;;;;;5135200;27;915;-73
2023/12/01 07:48:09;;;;;;;;;;;;;;;;;;5133968;27;950;-73
2023/12/01 07:50:35;;;;;;;;;;;;;;;;;;5133765;27;1179;-73
2023/12/01 07:53:04;;;;;;;;;;;;;;;;;;5115983;27;1174;-73
2023/12/01 07:55:29;;;;;;;;;;;;;;;;;;5134746;27;1957;-73
2023/12/01 07:57:54;;;;;;;;;;;;;;;;;;5134723;27;892;-72
2023/12/01 08:00:20;;;;;;;;;;;;;;;;;;5134532;27;1140;-72
2023/12/01 08:02:47;;;;;;;;;;;;;;;;;;5130794;27;1128;-72
2023/12/01 08:05:15;;;;;;;;;;;;;;;;;;5112642;27;1361;-73
2023/12/01 08:07:41;;;;;;;;;;;;;;;;;;5130881;27;1195;-73
2023/12/01 08:10:07;;;;;;;;;;;;;;;;;;5129401;27;1160;-73
2023/12/01 08:12:32;;;;;;;;;;;;;;;;;;5131267;27;1160;-74
2023/12/01 08:14:58;;;;;;;;;;;;;;;;;;5131902;27;1968;-73
2023/12/01 08:17:24;;;;;;;;;;;;;;;;;;5112802;27;1127;-72
2023/12/01 08:19:49;;;;;;;;;;;;;;;;;;5113589;27;1370;-73
2023/12/01 08:22:14;;;;;;;;;;;;;;;;;;5134553;27;902;-73
2023/12/01 08:24:39;;;;;;;;;;;;;;;;;;5134876;27;918;-73
2023/12/01 08:27:05;;;;;;;;;;;;;;;;;;5135131;28;990;-73
2023/12/01 08:29:30;;;;;;;;;;;;;;;;;;5116613;28;902;-68
2023/12/01 08:31:55;;;;;;;;;;;;;;;;;;5116498;28;1017;-67
2023/12/01 08:34:21;;;;;;;;;;;;;;;;;;5116669;28;1894;-68
2023/12/01 08:36:46;;;;;;;;;;;;;;;;;;5135143;28;919;-68
2023/12/01 08:39:12;;;;;;;;;;;;;;;;;;5134720;28;911;-67
2023/12/01 08:41:37;;;;;;;;;;;;;;;;;;5116831;28;958;-68
2023/12/01 08:44:03;;;;;;;;;;;;;;;;;;5134727;28;758;-68
2023/12/01 08:46:28;;;;;;;;;;;;;;;;;;5099061;28;1511;-69
2023/12/01 08:48:54;;;;;;;;;;;;;;;;;;5134374;28;1001;-68
2023/12/01 08:51:19;;;;;;;;;;;;;;;;;;5116195;28;1210;-68
2023/12/01 08:53:44;;;;;;;;;;;;;;;;;;5135175;28;939;-73
2023/12/01 08:56:10;;;;;;;;;;;;;;;;;;5116262;28;1976;-74
2023/12/01 08:58:35;;;;;;;;;;;;;;;;;;5135128;27;855;-72
2023/12/01 09:01:02;;;;;;;;;;;;;;;;;;5119141;27;1163;-74
2023/12/01 09:03:28;;;;;;;;;;;;;;;;;;5135123;27;1155;-72
2023/12/01 09:05:53;;;;;;;;;;;;;;;;;;5134515;27;1166;-73
2023/12/01 09:08:18;;;;;;;;;;;;;;;;;;5134281;27;1207;-73
2023/12/01 09:10:43;;;;;;;;;;;;;;;;;;5116090;27;1371;-72
2023/12/01 09:13:12;;;;;;;;;;;;;;;;;;5135591;27;1187;-73
2023/12/01 09:15:37;;;;;;;;;;;;;;;;;;5116463;27;1969;-72
2023/12/01 09:18:02;;;;;;;;;;;;;;;;;;5134725;27;1237;-73
2023/12/01 09:20:27;;;;;;;;;;;;;;;;;;5136068;27;1239;-73
2023/12/01 09:22:53;;;;;;;;;;;;;;;;;;5137738;27;844;-73
2023/12/01 09:25:18;;;;;;;;;;;;;;;;;;5137672;27;630;-72
2023/12/01 09:27:43;;;;;;;;;;;;;;;;;;5119463;27;928;-72
2023/12/01 09:30:16;;;;;;;;;;;;;;;;;;5138491;27;1075;-72
2023/12/01 09:32:42;;;;;;;;;;;;;;;;;;5119822;27;1656;-73
2023/12/01 09:35:07;;;;;;;;;;;;;;;;;;5137750;27;1902;-73
2023/12/01 09:37:32;;;;;;;;;;;;;;;;;;5119093;27;1199;-72
2023/12/01 09:39:58;;;;;;;;;;;;;;;;;;5137707;27;832;-72
2023/12/01 09:42:24;;;;;;;;;;;;;;;;;;5118992;27;1375;-73
2023/12/01 09:44:53;;;;;;;;;;;;;;;;;;5137407;27;939;-73
2023/12/01 09:47:20;;;;;;;;;;;;;;;;;;5137291;27;868;-73
2023/12/01 09:49:46;;;;;;;;;;;;;;;;;;5119311;27;1473;-73
2023/12/01 09:52:11;;;;;;;;;;;;;;;;;;5137665;27;971;-73
2023/12/01 09:54:36;;;;;;;;;;;;;;;;;;5119468;27;1893;-73
2023/12/01 09:57:04;;;;;;;;;;;;;;;;;;5137978;27;947;-72
2023/12/01 09:59:29;;;;;;;;;;;;;;;;;;5115965;27;1572;-73
2023/12/01 10:01:55;;;;;;;;;;;;;;;;;;5133376;27;1171;-73
2023/12/01 10:04:20;;;;;;;;;;;;;;;;;;5132710;27;1179;-72
2023/12/01 10:06:46;;;;;;;;;;;;;;;;;;5135200;27;1155;-73
2023/12/01 10:09:12;;;;;;;;;;;;;;;;;;5114648;27;1550;-72
2023/12/01 10:11:38;;;;;;;;;;;;;;;;;;5114678;27;1253;-72
2023/12/01 10:14:06;;;;;;;;;;;;;;;;;;5100737;27;1905;-73
2023/12/01 10:16:34;;;;;;;;;;;;;;;;;;5119004;27;1194;-74
2023/12/01 10:19:01;;;;;;;;;;;;;;;;;;5118911;27;1504;-74
2023/12/01 10:21:56;;;;;;;;;;;;;;;;;;5118824;27;1310;-74
2023/12/01 10:24:21;;;;;;;;;;;;;;;;;;5115288;27;1283;-73
2023/12/01 10:26:48;;;;;;;;;;;;;;;;;;5119179;27;1567;-72
2023/12/01 10:29:32;;;;;;;;;;;;;;;;;;5137168;27;917;-73
2023/12/01 10:32:06;;;;;;;;;;;;;;;;;;5118301;27;1570;-73
2023/12/01 10:34:32;;;;;;;;;;;;;;;;;;5136552;27;1967;-72
2023/12/01 10:36:57;;;;;;;;;;;;;;;;;;5101391;27;1320;-72
2023/12/01 10:39:29;;;;;;;;;;;;;;;;;;5136596;27;914;-73
2023/12/01 10:41:55;;;;;;;;;;;;;;;;;;5136393;27;856;-74
2023/12/01 10:44:22;;;;;;;;;;;;;;;;;;5136614;27;828;-74
2023/12/01 10:46:47;;;;;;;;;;;;;;;;;;5136467;27;848;-73
2023/12/01 10:49:17;;;;;;;;;;;;;;;;;;5117820;27;1248;-73
2023/12/01 10:51:43;;;;;;;;;;;;;;;;;;5136202;27;1299;-73
2023/12/01 10:54:12;;;;;;;;;;;;;;;;;;5136801;27;1951;-72
2023/12/01 10:56:44;;;;;;;;;;;;;;;;;;5117388;27;1240;-73
2023/12/01 10:59:11;;;;;;;;;;;;;;;;;;5135931;27;903;-73
2023/12/01 11:01:38;;;;;;;;;;;;;;;;;;5135941;27;856;-73
2023/12/01 11:04:06;;;;;;;;;;;;;;;;;;5132846;27;1242;-74
2023/12/01 11:06:48;;;;;;;;;;;;;;;;;;5131595;27;1135;-73
2023/12/01 11:09:24;;;;;;;;;;;;;;;;;;5130889;27;1136;-72
2023/12/01 11:11:55;;;;;;;;;;;;;;;;;;5129344;27;1143;-73
2023/12/01 11:14:21;;;;;;;;;;;;;;;;;;5131053;27;1954;-73
2023/12/01 11:16:47;;;;;;;;;;;;;;;;;;5113432;27;1204;-72
2023/12/01 11:19:12;;;;;;;;;;;;;;;;;;5113175;27;1250;-73
2023/12/01 11:21:42;;;;;;;;;;;;;;;;;;5134187;27;1222;-72
2023/12/01 11:24:26;;;;;;;;;;;;;;;;;;5136045;27;824;-72
2023/12/01 11:26:55;;;;;;;;;;;;;;;;;;5135790;27;1055;-73
2023/12/01 11:29:32;;;;;;;;;;;;;;;;;;5135614;27;887;-72
2023/12/01 11:31:58;;;;;;;;;;;;;;;;;;5136124;27;876;-71
2023/12/01 11:34:25;;;;;;;;;;;;;;;;;;5117322;27;1919;-72
2023/12/01 11:36:52;;;;;;;;;;;;;;;;;;5117732;27;819;-72
2023/12/01 11:41:53;;;;;;;;;;;;;;;;;;5136200;27;865;-73
2023/12/01 11:44:26;;;;;;;;;;;;;;;;;;5135966;27;943;-73
2023/12/01 11:46:55;;;;;;;;;;;;;;;;;;5118059;27;1509;-73
2023/12/01 11:49:22;;;;;;;;;;;;;;;;;;5135180;27;907;-73
2023/12/01 11:51:49;;;;;;;;;;;;;;;;;;5135393;27;882;-73
2023/12/01 11:54:14;;;;;;;;;;;;;;;;;;5116426;27;1909;-73
2023/12/01 11:56:39;;;;;;;;;;;;;;;;;;5116882;27;1353;-73
2023/12/01 11:59:08;;;;;;;;;;;;;;;;;;5135547;27;761;-73
2023/12/01 12:01:33;;;;;;;;;;;;;;;;;;5135218;27;949;-73
2023/12/01 12:03:59;;;;;;;;;;;;;;;;;;5134986;27;797;-73
2023/12/01 12:06:25;;;;;;;;;;;;;;;;;;5116635;27;1345;-73
2023/12/01 12:08:51;;;;;;;;;;;;;;;;;;5114539;27;1238;-73
2023/12/01 12:11:16;;;;;;;;;;;;;;;;;;5127691;27;1175;-73
2023/12/01 12:13:42;;;;;;;;;;;;;;;;;;5110193;28;1478;-73
2023/12/01 12:16:07;;;;;;;;;;;;;;;;;;5135140;27;1906;-74
2023/12/01 12:18:33;;;;;;;;;;;;;;;;;;5135076;27;843;-74
2023/12/01 12:21:02;;;;;;;;;;;;;;;;;;5116760;27;1022;-73
2023/12/01 12:23:29;;;;;;;;;;;;;;;;;;5134619;27;903;-73
2023/12/01 12:25:54;;;;;;;;;;;;;;;;;;5116484;28;1408;-75
2023/12/01 12:28:20;;;;;;;;;;;;;;;;;;5134388;28;941;-72
2023/12/01 12:30:53;;;;;;;;;;;;;;;;;;5134774;28;886;-73
2023/12/01 12:33:19;;;;;;;;;;;;;;;;;;5134886;27;922;-74
2023/12/01 12:35:44;;;;;;;;;;;;;;;;;;5119426;27;1961;-73
2023/12/01 12:38:10;;;;;;;;;;;;;;;;;;5138962;27;844;-74
2023/12/01 12:40:35;;;;;;;;;;;;;;;;;;5103944;27;1233;-73
2023/12/01 12:43:02;;;;;;;;;;;;;;;;;;5139190;27;1006;-73
2023/12/01 12:45:27;;;;;;;;;;;;;;;;;;5139026;27;907;-73
2023/12/01 12:48:02;;;;;;;;;;;;;;;;;;5138742;27;852;-73
2023/12/01 12:50:27;;;;;;;;;;;;;;;;;;5138820;27;961;-74
2023/12/01 12:52:53;;;;;;;;;;;;;;;;;;5139056;27;962;-73
2023/12/01 12:55:25;;;;;;;;;;;;;;;;;;5138762;27;1913;-75
2023/12/01 12:57:50;;;;;;;;;;;;;;;;;;5120071;27;737;-73
2023/12/01 13:00:16;;;;;;;;;;;;;;;;;;5138481;27;993;-74
2023/12/01 13:02:41;;;;;;;;;;;;;;;;;;5120026;27;955;-73
2023/12/01 13:05:06;;;;;;;;;;;;;;;;;;5138582;27;884;-72
2023/12/01 13:07:32;;;;;;;;;;;;;;;;;;5118063;27;1440;-73
2023/12/01 13:09:58;;;;;;;;;;;;;;;;;;5118357;27;1282;-73
2023/12/01 13:12:23;;;;;;;;;;;;;;;;;;5115794;27;1152;-72
2023/12/01 13:14:48;;;;;;;;;;;;;;;;;;5134865;27;1963;-73
2023/12/01 13:17:14;;;;;;;;;;;;;;;;;;5134962;27;1301;-72
2023/12/01 13:19:40;;;;;;;;;;;;;;;;;;5135535;27;1159;-73
2023/12/01 13:22:05;;;;;;;;;;;;;;;;;;5138088;27;1266;-73
2023/12/01 13:24:30;;;;;;;;;;;;;;;;;;5119467;27;1210;-73
2023/12/01 13:26:56;;;;;;;;;;;;;;;;;;5137815;27;915;-73
2023/12/01 13:29:21;;;;;;;;;;;;;;;;;;5117515;27;1260;-73
2023/12/01 13:31:46;;;;;;;;;;;;;;;;;;5137685;27;943;-73
2023/12/01 13:34:11;;;;;;;;;;;;;;;;;;5119183;27;1945;-73
2023/12/01 13:36:37;;;;;;;;;;;;;;;;;;5118594;27;1188;-73
2023/12/01 13:39:02;;;;;;;;;;;;;;;;;;5118793;27;1159;-74
2023/12/01 13:41:27;;;;;;;;;;;;;;;;;;5137551;27;982;-74
2023/12/01 13:43:53;;;;;;;;;;;;;;;;;;5137754;27;868;-74
2023/12/01 13:46:18;;;;;;;;;;;;;;;;;;5138170;27;907;-73
2023/12/01 13:48:43;;;;;;;;;;;;;;;;;;5137827;27;1286;-73
2023/12/01 13:51:09;;;;;;;;;;;;;;;;;;5118909;27;1082;-73
2023/12/01 13:53:34;;;;;;;;;;;;;;;;;;5118356;27;1408;-73
2023/12/01 13:56:00;;;;;;;;;;;;;;;;;;5101743;27;1960;-73
2023/12/01 13:58:25;;;;;;;;;;;;;;;;;;5137622;27;959;-73
2023/12/01 14:00:50;;;;;;;;;;;;;;;;;;5118997;27;974;-74
2023/12/01 14:03:15;;;;;;;;;;;;;;;;;;5137533;27;808;-74
2023/12/01 14:05:41;;;;;;;;;;;;;;;;;;5119116;27;1381;-74
2023/12/01 14:08:06;;;;;;;;;;;;;;;;;;5137633;27;1001;-73
2023/12/01 14:10:34;;;;;;;;;;;;;;;;;;5117905;27;1279;-72
2023/12/01 14:13:00;;;;;;;;;;;;;;;;;;5115138;27;1572;-73
2023/12/01 14:15:25;;;;;;;;;;;;;;;;;;5133971;27;1983;-73
2023/12/01 14:17:51;;;;;;;;;;;;;;;;;;5134201;27;1148;-73
2023/12/01 14:20:16;;;;;;;;;;;;;;;;;;5133989;27;1380;-74
2023/12/01 14:22:41;;;;;;;;;;;;;;;;;;5137257;27;839;-72
2023/12/01 14:25:07;;;;;;;;;;;;;;;;;;5118766;27;1464;-73
2023/12/01 14:27:32;;;;;;;;;;;;;;;;;;5101220;27;1469;-73
2023/12/01 14:29:57;;;;;;;;;;;;;;;;;;5115348;27;1342;-73
2023/12/01 14:32:23;;;;;;;;;;;;;;;;;;5114997;27;1202;-73
2023/12/01 14:34:48;;;;;;;;;;;;;;;;;;5115296;27;1897;-74
2023/12/01 14:37:13;;;;;;;;;;;;;;;;;;5133261;27;1175;-73
2023/12/01 14:39:39;;;;;;;;;;;;;;;;;;5114996;27;1207;-72
2023/12/01 14:42:04;;;;;;;;;;;;;;;;;;5134178;27;1175;-73
2023/12/01 14:44:30;;;;;;;;;;;;;;;;;;5133574;27;1151;-73
2023/12/01 14:46:55;;;;;;;;;;;;;;;;;;5115116;27;1290;-73
2023/12/01 14:49:21;;;;;;;;;;;;;;;;;;5133639;27;1171;-73
2023/12/01 14:51:46;;;;;;;;;;;;;;;;;;5095955;28;1320;-73
2023/12/01 14:54:11;;;;;;;;;;;;;;;;;;5116783;27;1981;-74
2023/12/01 14:56:37;;;;;;;;;;;;;;;;;;5135951;27;946;-73
2023/12/01 14:59:03;;;;;;;;;;;;;;;;;;5117554;27;1359;-73
2023/12/01 15:01:28;;;;;;;;;;;;;;;;;;5136203;27;761;-74
2023/12/01 15:03:54;;;;;;;;;;;;;;;;;;5117275;27;1327;-73
2023/12/01 15:06:19;;;;;;;;;;;;;;;;;;5136033;27;903;-73
2023/12/01 15:08:44;;;;;;;;;;;;;;;;;;5117481;27;1238;-73
2023/12/01 15:11:09;;;;;;;;;;;;;;;;;;5135770;27;1151;-73
2023/12/01 15:13:35;;;;;;;;;;;;;;;;;;5135693;27;844;-73
2023/12/01 15:16:00;;;;;;;;;;;;;;;;;;5113378;27;1964;-73
2023/12/01 15:18:27;;;;;;;;;;;;;;;;;;5095350;28;1507;-73
2023/12/01 15:20:53;;;;;;;;;;;;;;;;;;5097238;28;1298;-74
2023/12/01 15:23:18;;;;;;;;;;;;;;;;;;5115359;28;904;-74
2023/12/01 15:25:43;;;;;;;;;;;;;;;;;;5114977;28;899;-73
2023/12/01 15:28:08;;;;;;;;;;;;;;;;;;5115457;28;978;-73
2023/12/01 15:30:35;;;;;;;;;;;;;;;;;;5127021;27;1168;-73
2023/12/01 15:33:00;;;;;;;;;;;;;;;;;;5116696;27;1399;-74
2023/12/01 15:35:25;;;;;;;;;;;;;;;;;;5117028;27;1975;-74
2023/12/01 15:37:50;;;;;;;;;;;;;;;;;;5136130;27;864;-73
2023/12/01 15:40:16;;;;;;;;;;;;;;;;;;5117281;27;1388;-73
2023/12/01 15:42:41;;;;;;;;;;;;;;;;;;5136034;27;848;-72
2023/12/01 15:45:07;;;;;;;;;;;;;;;;;;5117368;27;1327;-74
2023/12/01 15:47:32;;;;;;;;;;;;;;;;;;5117025;27;1081;-74
2023/12/01 15:49:57;;;;;;;;;;;;;;;;;;5135292;27;911;-73
2023/12/01 15:52:23;;;;;;;;;;;;;;;;;;5116086;27;1391;-73
2023/12/01 15:54:50;;;;;;;;;;;;;;;;;;5115923;27;1973;-73
2023/12/01 15:57:15;;;;;;;;;;;;;;;;;;5134623;27;852;-73
2023/12/01 15:59:41;;;;;;;;;;;;;;;;;;5134694;27;835;-73
2023/12/01 16:02:06;;;;;;;;;;;;;;;;;;5134202;27;1152;-72
2023/12/01 16:04:34;;;;;;;;;;;;;;;;;;5129903;27;1292;-74
2023/12/01 16:06:59;;;;;;;;;;;;;;;;;;5113474;27;1124;-73
2023/12/01 16:09:24;;;;;;;;;;;;;;;;;;5130431;27;1175;-73
2023/12/01 16:11:50;;;;;;;;;;;;;;;;;;5130775;27;1128;-73
2023/12/01 16:14:16;;;;;;;;;;;;;;;;;;5130365;27;1971;-74
2023/12/01 16:16:41;;;;;;;;;;;;;;;;;;5112474;27;1230;-73
2023/12/01 16:19:07;;;;;;;;;;;;;;;;;;5094497;28;1360;-73
2023/12/01 16:21:34;;;;;;;;;;;;;;;;;;5132586;27;1136;-73
2023/12/01 16:24:00;;;;;;;;;;;;;;;;;;5134733;27;863;-73
2023/12/01 16:26:26;;;;;;;;;;;;;;;;;;5115875;28;1237;-73
2023/12/01 16:28:51;;;;;;;;;;;;;;;;;;5134232;27;993;-73
2023/12/01 16:31:17;;;;;;;;;;;;;;;;;;5114970;27;1625;-74
2023/12/01 16:33:42;;;;;;;;;;;;;;;;;;5131170;27;1215;-73
2023/12/01 16:36:08;;;;;;;;;;;;;;;;;;5131253;28;1918;-74
2023/12/01 16:38:33;;;;;;;;;;;;;;;;;;5134153;28;801;-73
2023/12/01 16:40:59;;;;;;;;;;;;;;;;;;5098670;28;1782;-74
2023/12/01 16:43:24;;;;;;;;;;;;;;;;;;5134308;28;899;-73
2023/12/01 16:45:50;;;;;;;;;;;;;;;;;;5115682;28;898;-72
2023/12/01 16:48:15;;;;;;;;;;;;;;;;;;5115831;28;1080;-73
2023/12/01 16:50:41;;;;;;;;;;;;;;;;;;5116184;28;828;-73
2023/12/01 16:53:12;;;;;;;;;;;;;;;;;;5132638;28;1132;-73
2023/12/01 16:55:40;;;;;;;;;;;;;;;;;;5134209;28;1973;-73
2023/12/01 16:58:06;;;;;;;;;;;;;;;;;;5134476;28;958;-72
2023/12/01 17:00:32;;;;;;;;;;;;;;;;;;5116527;28;887;-73
2023/12/01 17:02:57;;;;;;;;;;;;;;;;;;5134410;28;804;-73
2023/12/01 17:05:23;;;;;;;;;;;;;;;;;;5134004;28;864;-73